sensor_id;sensor_type;location;lat;lon;timestamp;pressure;altitude;pressure_sealevel;temperature;humidity
28797;BME280;24974;54.444;18.560;2022-07-24T05:42:37;101373.28;;;18.26;74.63
28797;BME280;24974;54.444;18.560;2022-07-24T05:45:08;101388.47;;;18.16;74.79
28797;BME280;24974;54.444;18.560;2022-07-24T05:47:39;101381.78;;;18.42;74.09
28797;BME280;24974;54.444;18.560;2022-07-24T05:50:13;101380.63;;;18.43;73.62
28797;BME280;24974;54.444;18.560;2022-07-24T05:52:44;101385.28;;;18.63;72.95
28797;BME280;24974;54.444;18.560;2022-07-24T05:55:14;101390.75;;;18.02;74.68
28797;BME280;24974;54.444;18.560;2022-07-24T05:57:45;101398.53;;;18.09;74.64
28797;BME280;24974;54.444;18.560;2022-07-24T06:00:16;101399.97;;;18.27;73.95
28797;BME280;24974;54.444;18.560;2022-07-24T06:02:50;101397.31;;;18.31;73.34
28797;BME280;24974;54.444;18.560;2022-07-24T06:05:21;101400.00;;;18.39;73.61
28797;BME280;24974;54.444;18.560;2022-07-24T06:07:53;101403.81;;;18.35;72.95
28797;BME280;24974;54.444;18.560;2022-07-24T06:10:23;101402.78;;;18.52;72.36
28797;BME280;24974;54.444;18.560;2022-07-24T06:12:54;101411.09;;;18.72;71.69
28797;BME280;24974;54.444;18.560;2022-07-24T06:15:25;101406.53;;;18.68;72.28
28797;BME280;24974;54.444;18.560;2022-07-24T06:17:56;101405.56;;;18.52;72.57
28797;BME280;24974;54.444;18.560;2022-07-24T06:20:28;101414.16;;;18.59;72.27
28797;BME280;24974;54.444;18.560;2022-07-24T06:22:59;101416.28;;;18.62;72.17
28797;BME280;24974;54.444;18.560;2022-07-24T06:25:30;101407.56;;;18.63;71.54
28797;BME280;24974;54.444;18.560;2022-07-24T06:28:00;101409.09;;;18.61;71.63
28797;BME280;24974;54.444;18.560;2022-07-24T06:30:31;101413.03;;;18.84;71.54
28797;BME280;24974;54.444;18.560;2022-07-24T06:33:02;101418.41;;;18.77;70.86
28797;BME280;24974;54.444;18.560;2022-07-24T06:35:33;101418.63;;;18.96;70.26
28797;BME280;24974;54.444;18.560;2022-07-24T06:38:04;101415.25;;;19.15;69.10
28797;BME280;24974;54.444;18.560;2022-07-24T06:40:36;101415.16;;;19.12;68.90
28797;BME280;24974;54.444;18.560;2022-07-24T06:43:07;101410.06;;;19.66;67.09
28797;BME280;24974;54.444;18.560;2022-07-24T06:45:38;101415.94;;;19.77;66.22
28797;BME280;24974;54.444;18.560;2022-07-24T06:48:09;101421.31;;;19.70;66.54
28797;BME280;24974;54.444;18.560;2022-07-24T06:50:40;101415.66;;;19.66;65.93
28797;BME280;24974;54.444;18.560;2022-07-24T06:53:11;101430.16;;;19.47;65.60
28797;BME280;24974;54.444;18.560;2022-07-24T06:55:42;101430.22;;;19.35;66.03
28797;BME280;24974;54.444;18.560;2022-07-24T06:58:13;101433.44;;;19.37;65.49
28797;BME280;24974;54.444;18.560;2022-07-24T07:00:44;101430.66;;;19.49;64.85
28797;BME280;24974;54.444;18.560;2022-07-24T07:03:15;101422.88;;;19.43;65.15
28797;BME280;24974;54.444;18.560;2022-07-24T07:05:47;101436.78;;;19.55;65.44
28797;BME280;24974;54.444;18.560;2022-07-24T07:08:18;101433.00;;;19.35;65.58
28797;BME280;24974;54.444;18.560;2022-07-24T07:10:49;101435.09;;;19.26;65.83
28797;BME280;24974;54.444;18.560;2022-07-24T07:13:20;101445.22;;;19.18;66.02
28797;BME280;24974;54.444;18.560;2022-07-24T07:15:51;101434.63;;;19.24;66.46
28797;BME280;24974;54.444;18.560;2022-07-24T07:18:22;101444.16;;;19.23;66.71
28797;BME280;24974;54.444;18.560;2022-07-24T07:20:53;101447.06;;;19.26;66.99
28797;BME280;24974;54.444;18.560;2022-07-24T07:23:24;101446.25;;;19.14;67.39
28797;BME280;24974;54.444;18.560;2022-07-24T07:25:57;101437.88;;;19.26;67.12
28797;BME280;24974;54.444;18.560;2022-07-24T07:28:28;101444.38;;;19.30;66.66
28797;BME280;24974;54.444;18.560;2022-07-24T07:30:59;101450.88;;;19.34;66.94
28797;BME280;24974;54.444;18.560;2022-07-24T07:33:30;101448.94;;;19.10;67.15
28797;BME280;24974;54.444;18.560;2022-07-24T07:36:01;101450.88;;;19.34;66.30
28797;BME280;24974;54.444;18.560;2022-07-24T07:38:32;101448.28;;;19.53;65.33
28797;BME280;24974;54.444;18.560;2022-07-24T07:41:05;101452.22;;;19.77;64.93
28797;BME280;24974;54.444;18.560;2022-07-24T07:43:36;101444.06;;;19.72;64.95
28797;BME280;24974;54.444;18.560;2022-07-24T07:46:07;101456.22;;;19.92;64.17
28797;BME280;24974;54.444;18.560;2022-07-24T07:48:38;101455.59;;;19.70;64.34
28797;BME280;24974;54.444;18.560;2022-07-24T07:51:09;101460.66;;;19.80;64.19
28797;BME280;24974;54.444;18.560;2022-07-24T07:53:40;101460.56;;;19.89;63.86
28797;BME280;24974;54.444;18.560;2022-07-24T07:56:11;101457.38;;;20.19;63.25
28797;BME280;24974;54.444;18.560;2022-07-24T07:58:41;101459.47;;;20.22;63.21
28797;BME280;24974;54.444;18.560;2022-07-24T08:01:12;101470.38;;;20.55;61.58
28797;BME280;24974;54.444;18.560;2022-07-24T08:03:43;101470.38;;;19.99;61.25
28797;BME280;24974;54.444;18.560;2022-07-24T08:06:14;101466.56;;;20.19;60.44
28797;BME280;24974;54.444;18.560;2022-07-24T08:08:45;101472.25;;;19.95;60.77
28797;BME280;24974;54.444;18.560;2022-07-24T08:11:17;101474.22;;;19.94;60.72
28797;BME280;24974;54.444;18.560;2022-07-24T08:13:48;101472.84;;;19.88;60.37
28797;BME280;24974;54.444;18.560;2022-07-24T08:16:19;101474.81;;;20.00;61.37
28797;BME280;24974;54.444;18.560;2022-07-24T08:18:49;101483.59;;;19.74;61.04
28797;BME280;24974;54.444;18.560;2022-07-24T08:21:20;101485.22;;;19.75;61.41
28797;BME280;24974;54.444;18.560;2022-07-24T08:23:52;101485.97;;;19.88;60.85
28797;BME280;24974;54.444;18.560;2022-07-24T08:26:23;101476.78;;;19.99;61.58
28797;BME280;24974;54.444;18.560;2022-07-24T08:28:54;101477.94;;;20.26;60.24
28797;BME280;24974;54.444;18.560;2022-07-24T08:31:25;101477.13;;;20.26;59.31
28797;BME280;24974;54.444;18.560;2022-07-24T08:33:56;101477.97;;;20.86;58.18
28797;BME280;24974;54.444;18.560;2022-07-24T08:36:27;101480.22;;;20.80;57.62
28797;BME280;24974;54.444;18.560;2022-07-24T08:38:58;101476.84;;;20.59;58.34
28797;BME280;24974;54.444;18.560;2022-07-24T08:41:32;101479.84;;;20.66;58.29
28797;BME280;24974;54.444;18.560;2022-07-24T08:44:05;101473.56;;;20.41;59.23
28797;BME280;24974;54.444;18.560;2022-07-24T08:46:38;101483.44;;;20.66;59.00
28797;BME280;24974;54.444;18.560;2022-07-24T08:49:13;101493.00;;;20.65;59.18
28797;BME280;24974;54.444;18.560;2022-07-24T08:51:45;101492.47;;;20.32;59.94
28797;BME280;24974;54.444;18.560;2022-07-24T08:54:16;101499.81;;;20.24;59.54
28797;BME280;24974;54.444;18.560;2022-07-24T08:56:47;101497.56;;;20.02;60.42
28797;BME280;24974;54.444;18.560;2022-07-24T08:59:20;101507.22;;;20.32;59.67
28797;BME280;24974;54.444;18.560;2022-07-24T09:01:51;101509.28;;;20.48;59.18
28797;BME280;24974;54.444;18.560;2022-07-24T09:07:15;101498.50;;;21.09;57.68
28797;BME280;24974;54.444;18.560;2022-07-24T09:12:32;101494.41;;;21.54;56.78
28797;BME280;24974;54.444;18.560;2022-07-24T09:15:14;101494.25;;;21.47;55.70
28797;BME280;24974;54.444;18.560;2022-07-24T09:17:58;101496.69;;;21.33;55.95
28797;BME280;24974;54.444;18.560;2022-07-24T09:20:29;101492.38;;;21.70;54.73
28797;BME280;24974;54.444;18.560;2022-07-24T09:23:00;101495.94;;;21.67;56.64
28797;BME280;24974;54.444;18.560;2022-07-24T09:25:33;101509.63;;;22.08;56.23
28797;BME280;24974;54.444;18.560;2022-07-24T09:28:04;101501.81;;;22.59;54.43
28797;BME280;24974;54.444;18.560;2022-07-24T09:30:42;101510.88;;;22.10;55.19
28797;BME280;24974;54.444;18.560;2022-07-24T09:33:18;101509.06;;;21.83;56.98
28797;BME280;24974;54.444;18.560;2022-07-24T09:35:52;101513.03;;;21.31;58.29
28797;BME280;24974;54.444;18.560;2022-07-24T09:38:24;101513.13;;;21.03;59.55
28797;BME280;24974;54.444;18.560;2022-07-24T09:40:56;101525.75;;;20.97;60.26
28797;BME280;24974;54.444;18.560;2022-07-24T09:43:30;101521.94;;;20.89;59.61
28797;BME280;24974;54.444;18.560;2022-07-24T09:46:06;101528.72;;;20.88;59.19
28797;BME280;24974;54.444;18.560;2022-07-24T09:48:40;101527.53;;;20.89;59.47
28797;BME280;24974;54.444;18.560;2022-07-24T09:51:20;101527.97;;;21.22;59.34
28797;BME280;24974;54.444;18.560;2022-07-24T09:53:56;101522.66;;;21.49;57.62
28797;BME280;24974;54.444;18.560;2022-07-24T09:56:27;101521.59;;;21.73;56.17
28797;BME280;24974;54.444;18.560;2022-07-24T09:58:59;101526.34;;;21.53;56.03
28797;BME280;24974;54.444;18.560;2022-07-24T10:01:32;101533.34;;;21.43;56.83
28797;BME280;24974;54.444;18.560;2022-07-24T10:04:05;101520.97;;;21.44;57.12
28797;BME280;24974;54.444;18.560;2022-07-24T10:06:37;101534.91;;;21.60;57.44
28797;BME280;24974;54.444;18.560;2022-07-24T10:09:12;101538.81;;;21.91;57.37
28797;BME280;24974;54.444;18.560;2022-07-24T10:11:44;101535.09;;;21.67;56.45
28797;BME280;24974;54.444;18.560;2022-07-24T10:14:17;101547.84;;;21.33;56.96
28797;BME280;24974;54.444;18.560;2022-07-24T10:16:54;101552.03;;;20.80;58.63
28797;BME280;24974;54.444;18.560;2022-07-24T10:19:51;101554.75;;;21.08;58.40
28797;BME280;24974;54.444;18.560;2022-07-24T10:22:23;101545.34;;;21.28;58.54
28797;BME280;24974;54.444;18.560;2022-07-24T10:24:59;101550.34;;;21.54;58.52
28797;BME280;24974;54.444;18.560;2022-07-24T10:27:37;101555.06;;;21.50;58.20
28797;BME280;24974;54.444;18.560;2022-07-24T10:30:10;101551.41;;;21.65;57.01
28797;BME280;24974;54.444;18.560;2022-07-24T10:32:43;101557.50;;;21.87;55.78
28797;BME280;24974;54.444;18.560;2022-07-24T10:35:25;101564.59;;;21.65;56.04
28797;BME280;24974;54.444;18.560;2022-07-24T10:38:21;101549.91;;;21.52;56.92
28797;BME280;24974;54.444;18.560;2022-07-24T10:40:54;101561.97;;;21.56;56.74
28797;BME280;24974;54.444;18.560;2022-07-24T10:43:30;101565.56;;;21.25;56.70
28797;BME280;24974;54.444;18.560;2022-07-24T10:48:35;101555.78;;;21.47;57.52
28797;BME280;24974;54.444;18.560;2022-07-24T10:51:13;101561.06;;;21.68;56.39
28797;BME280;24974;54.444;18.560;2022-07-24T10:53:50;101567.84;;;21.67;56.90
28797;BME280;24974;54.444;18.560;2022-07-24T10:59:16;101565.50;;;21.69;56.02
28797;BME280;24974;54.444;18.560;2022-07-24T11:02:28;101575.72;;;21.96;55.74
28797;BME280;24974;54.444;18.560;2022-07-24T11:05:25;101573.69;;;22.90;53.34
28797;BME280;24974;54.444;18.560;2022-07-24T11:10:48;101577.13;;;22.22;52.47
28797;BME280;24974;54.444;18.560;2022-07-24T11:21:40;101571.59;;;21.90;53.95
28797;BME280;24974;54.444;18.560;2022-07-24T11:26:51;101597.03;;;21.34;55.58
28797;BME280;24974;54.444;18.560;2022-07-24T11:29:26;101592.56;;;21.33;55.89
28797;BME280;24974;54.444;18.560;2022-07-24T11:32:05;101595.66;;;21.28;55.61
28797;BME280;24974;54.444;18.560;2022-07-24T11:34:37;101601.25;;;21.44;55.46
28797;BME280;24974;54.444;18.560;2022-07-24T11:37:09;101599.00;;;21.34;55.96
28797;BME280;24974;54.444;18.560;2022-07-24T11:39:42;101595.19;;;21.26;55.95
28797;BME280;24974;54.444;18.560;2022-07-24T11:42:15;101599.91;;;21.38;55.69
28797;BME280;24974;54.444;18.560;2022-07-24T11:44:48;101596.25;;;21.69;54.90
28797;BME280;24974;54.444;18.560;2022-07-24T11:47:22;101593.63;;;21.76;54.11
28797;BME280;24974;54.444;18.560;2022-07-24T11:49:56;101596.88;;;21.78;54.69
28797;BME280;24974;54.444;18.560;2022-07-24T11:52:36;101598.16;;;21.33;55.58
28797;BME280;24974;54.444;18.560;2022-07-24T11:55:13;101593.28;;;21.62;54.53
28797;BME280;24974;54.444;18.560;2022-07-24T11:57:49;101608.03;;;21.27;55.57
28797;BME280;24974;54.444;18.560;2022-07-24T12:00:23;101614.47;;;21.15;55.21
28797;BME280;24974;54.444;18.560;2022-07-24T12:02:56;101606.69;;;21.09;55.31
28797;BME280;24974;54.444;18.560;2022-07-24T12:05:36;101604.50;;;21.30;55.47
28797;BME280;24974;54.444;18.560;2022-07-24T12:08:21;101611.16;;;21.26;55.82
28797;BME280;24974;54.444;18.560;2022-07-24T12:10:57;101615.88;;;21.09;56.77
28797;BME280;24974;54.444;18.560;2022-07-24T12:13:32;101611.59;;;21.12;55.52
28797;BME280;24974;54.444;18.560;2022-07-24T12:16:03;101603.03;;;21.20;55.29
28797;BME280;24974;54.444;18.560;2022-07-24T12:18:34;101616.97;;;21.05;55.17
28797;BME280;24974;54.444;18.560;2022-07-24T12:21:05;101611.75;;;21.03;55.60
28797;BME280;24974;54.444;18.560;2022-07-24T12:23:36;101611.84;;;21.07;55.84
28797;BME280;24974;54.444;18.560;2022-07-24T12:26:07;101624.28;;;21.09;55.66
28797;BME280;24974;54.444;18.560;2022-07-24T12:28:38;101629.41;;;21.35;55.92
28797;BME280;24974;54.444;18.560;2022-07-24T12:31:09;101622.81;;;21.28;55.45
28797;BME280;24974;54.444;18.560;2022-07-24T12:33:40;101624.88;;;21.31;55.49
28797;BME280;24974;54.444;18.560;2022-07-24T12:36:26;101624.88;;;21.31;55.41
28797;BME280;24974;54.444;18.560;2022-07-24T12:38:57;101623.34;;;20.89;56.22
28797;BME280;24974;54.444;18.560;2022-07-24T12:41:28;101620.13;;;21.03;56.04
28797;BME280;24974;54.444;18.560;2022-07-24T12:44:05;101616.50;;;20.87;56.31
28797;BME280;24974;54.444;18.560;2022-07-24T12:49:20;101625.53;;;20.96;56.02
28797;BME280;24974;54.444;18.560;2022-07-24T12:51:52;101624.81;;;21.15;56.03
28797;BME280;24974;54.444;18.560;2022-07-24T12:54:25;101618.19;;;21.19;55.51
28797;BME280;24974;54.444;18.560;2022-07-24T12:57:06;101628.44;;;21.15;56.38
28797;BME280;24974;54.444;18.560;2022-07-24T12:59:40;101625.78;;;21.35;56.33
28797;BME280;24974;54.444;18.560;2022-07-24T13:02:23;101628.59;;;21.07;56.97
28797;BME280;24974;54.444;18.560;2022-07-24T13:04:58;101627.06;;;21.09;57.85
28797;BME280;24974;54.444;18.560;2022-07-24T13:07:29;101625.31;;;20.89;58.56
28797;BME280;24974;54.444;18.560;2022-07-24T13:10:00;101619.66;;;20.85;58.96
28797;BME280;24974;54.444;18.560;2022-07-24T13:12:31;101621.38;;;20.90;58.43
28797;BME280;24974;54.444;18.560;2022-07-24T13:15:02;101623.75;;;21.04;57.58
28797;BME280;24974;54.444;18.560;2022-07-24T13:17:33;101630.34;;;21.11;57.87
28797;BME280;24974;54.444;18.560;2022-07-24T13:20:04;101624.56;;;21.04;58.23
28797;BME280;24974;54.444;18.560;2022-07-24T13:22:37;101625.06;;;20.94;58.14
28797;BME280;24974;54.444;18.560;2022-07-24T13:25:08;101620.00;;;20.56;59.72
28797;BME280;24974;54.444;18.560;2022-07-24T13:27:39;101625.69;;;20.59;59.66
28797;BME280;24974;54.444;18.560;2022-07-24T13:30:11;101627.94;;;20.54;59.16
28797;BME280;24974;54.444;18.560;2022-07-24T13:32:42;101625.13;;;20.54;59.16
28797;BME280;24974;54.444;18.560;2022-07-24T13:35:13;101617.88;;;20.65;59.31
28797;BME280;24974;54.444;18.560;2022-07-24T13:37:44;101621.38;;;20.62;58.43
28797;BME280;24974;54.444;18.560;2022-07-24T13:40:15;101621.56;;;20.69;58.40
28797;BME280;24974;54.444;18.560;2022-07-24T13:42:46;101626.63;;;20.63;57.78
28797;BME280;24974;54.444;18.560;2022-07-24T13:45:17;101632.25;;;20.79;57.30
28797;BME280;24974;54.444;18.560;2022-07-24T13:47:48;101634.22;;;20.79;57.34
28797;BME280;24974;54.444;18.560;2022-07-24T13:50:19;101633.63;;;20.85;57.24
28797;BME280;24974;54.444;18.560;2022-07-24T13:52:50;101637.41;;;20.93;57.11
28797;BME280;24974;54.444;18.560;2022-07-24T13:55:21;101634.00;;;21.00;56.65
28797;BME280;24974;54.444;18.560;2022-07-24T13:57:52;101634.53;;;20.89;57.51
28797;BME280;24974;54.444;18.560;2022-07-24T14:00:23;101623.94;;;20.83;56.30
28797;BME280;24974;54.444;18.560;2022-07-24T14:02:55;101634.56;;;20.77;56.79
28797;BME280;24974;54.444;18.560;2022-07-24T14:05:26;101635.53;;;20.69;56.93
28797;BME280;24974;54.444;18.560;2022-07-24T14:07:57;101635.69;;;20.88;56.66
28797;BME280;24974;54.444;18.560;2022-07-24T14:10:27;101636.78;;;21.00;56.63
28797;BME280;24974;54.444;18.560;2022-07-24T14:12:58;101637.94;;;20.83;57.46
28797;BME280;24974;54.444;18.560;2022-07-24T14:15:29;101643.66;;;20.74;58.05
28797;BME280;24974;54.444;18.560;2022-07-24T14:18:00;101638.59;;;20.64;58.50
28797;BME280;24974;54.444;18.560;2022-07-24T14:20:32;101642.91;;;20.61;59.08
28797;BME280;24974;54.444;18.560;2022-07-24T14:23:03;101645.34;;;20.63;59.03
28797;BME280;24974;54.444;18.560;2022-07-24T14:25:34;101651.31;;;20.49;59.75
28797;BME280;24974;54.444;18.560;2022-07-24T14:28:04;101632.72;;;20.29;60.40
28797;BME280;24974;54.444;18.560;2022-07-24T14:30:35;101634.38;;;20.30;60.82
28797;BME280;24974;54.444;18.560;2022-07-24T14:33:07;101635.47;;;20.01;62.81
28797;BME280;24974;54.444;18.560;2022-07-24T14:35:38;101639.31;;;19.84;63.75
28797;BME280;24974;54.444;18.560;2022-07-24T14:38:08;101640.00;;;19.69;64.38
28797;BME280;24974;54.444;18.560;2022-07-24T14:40:39;101641.38;;;19.50;65.77
28797;BME280;24974;54.444;18.560;2022-07-24T14:43:10;101636.13;;;19.49;65.76
28797;BME280;24974;54.444;18.560;2022-07-24T14:45:41;101637.75;;;19.38;66.66
28797;BME280;24974;54.444;18.560;2022-07-24T14:48:12;101631.09;;;19.30;67.43
28797;BME280;24974;54.444;18.560;2022-07-24T14:50:43;101634.94;;;19.25;67.62
28797;BME280;24974;54.444;18.560;2022-07-24T14:53:14;101641.19;;;19.22;68.13
28797;BME280;24974;54.444;18.560;2022-07-24T14:55:45;101638.50;;;19.14;68.29
28797;BME280;24974;54.444;18.560;2022-07-24T14:58:16;101635.63;;;19.22;67.97
28797;BME280;24974;54.444;18.560;2022-07-24T15:00:47;101639.31;;;19.14;67.42
28797;BME280;24974;54.444;18.560;2022-07-24T15:03:19;101636.66;;;19.18;67.48
28797;BME280;24974;54.444;18.560;2022-07-24T15:05:50;101638.22;;;19.52;67.02
28797;BME280;24974;54.444;18.560;2022-07-24T15:08:21;101635.25;;;19.57;66.30
28797;BME280;24974;54.444;18.560;2022-07-24T15:10:52;101633.72;;;19.60;66.37
28797;BME280;24974;54.444;18.560;2022-07-24T15:13:23;101629.41;;;19.50;66.24
28797;BME280;24974;54.444;18.560;2022-07-24T15:15:53;101622.81;;;19.91;65.10
28797;BME280;24974;54.444;18.560;2022-07-24T15:18:26;101617.94;;;19.76;66.25
28797;BME280;24974;54.444;18.560;2022-07-24T15:20:57;101609.09;;;19.98;65.04
28797;BME280;24974;54.444;18.560;2022-07-24T15:23:28;101606.97;;;20.07;63.78
28797;BME280;24974;54.444;18.560;2022-07-24T15:25:59;101597.28;;;20.17;63.52
28797;BME280;24974;54.444;18.560;2022-07-24T15:28:30;101606.66;;;20.49;62.88
28797;BME280;24974;54.444;18.560;2022-07-24T15:31:01;101604.84;;;20.85;61.13
28797;BME280;24974;54.444;18.560;2022-07-24T15:33:32;101610.31;;;21.25;59.59
28797;BME280;24974;54.444;18.560;2022-07-24T15:36:04;101599.28;;;21.44;57.66
28797;BME280;24974;54.444;18.560;2022-07-24T15:38:35;101596.34;;;21.57;57.35
28797;BME280;24974;54.444;18.560;2022-07-24T15:41:06;101592.72;;;21.24;57.58
28797;BME280;24974;54.444;18.560;2022-07-24T15:43:37;101594.84;;;21.59;57.41
28797;BME280;24974;54.444;18.560;2022-07-24T15:46:08;101591.81;;;21.84;55.49
28797;BME280;24974;54.444;18.560;2022-07-24T15:48:39;101588.56;;;21.82;55.12
28797;BME280;24974;54.444;18.560;2022-07-24T15:51:10;101586.75;;;21.73;55.13
28797;BME280;24974;54.444;18.560;2022-07-24T15:53:40;101585.50;;;21.23;55.82
28797;BME280;24974;54.444;18.560;2022-07-24T15:56:11;101581.91;;;21.23;56.98
28797;BME280;24974;54.444;18.560;2022-07-24T15:58:42;101581.38;;;21.49;56.29
28797;BME280;24974;54.444;18.560;2022-07-24T16:01:13;101585.31;;;21.16;56.68
28797;BME280;24974;54.444;18.560;2022-07-24T16:03:44;101571.34;;;21.01;57.26
28797;BME280;24974;54.444;18.560;2022-07-24T16:06:15;101565.69;;;20.53;58.04
28797;BME280;24974;54.444;18.560;2022-07-24T16:08:46;101563.44;;;20.59;58.06
28797;BME280;24974;54.444;18.560;2022-07-24T16:11:17;101569.81;;;20.59;59.07
28797;BME280;24974;54.444;18.560;2022-07-24T16:13:48;101558.44;;;20.52;58.56
28797;BME280;24974;54.444;18.560;2022-07-24T16:16:19;101566.38;;;20.78;57.60
28797;BME280;24974;54.444;18.560;2022-07-24T16:18:50;101570.44;;;20.81;58.52
28797;BME280;24974;54.444;18.560;2022-07-24T16:21:21;101569.34;;;20.70;58.79
28797;BME280;24974;54.444;18.560;2022-07-24T16:23:52;101563.91;;;20.77;58.10
28797;BME280;24974;54.444;18.560;2022-07-24T16:26:23;101567.91;;;20.91;58.16
28797;BME280;24974;54.444;18.560;2022-07-24T16:28:54;101560.91;;;21.13;57.80
28797;BME280;24974;54.444;18.560;2022-07-24T16:31:25;101558.75;;;21.22;56.94
28797;BME280;24974;54.444;18.560;2022-07-24T16:33:56;101563.06;;;21.04;57.88
28797;BME280;24974;54.444;18.560;2022-07-24T16:36:29;101572.84;;;20.82;58.51
28797;BME280;24974;54.444;18.560;2022-07-24T16:39:00;101578.22;;;20.59;59.62
28797;BME280;24974;54.444;18.560;2022-07-24T16:41:31;101580.78;;;20.52;60.10
28797;BME280;24974;54.444;18.560;2022-07-24T16:44:02;101577.91;;;20.49;60.73
28797;BME280;24974;54.444;18.560;2022-07-24T16:46:33;101584.81;;;20.27;61.17
28797;BME280;24974;54.444;18.560;2022-07-24T16:49:04;101577.31;;;20.15;62.11
28797;BME280;24974;54.444;18.560;2022-07-24T16:51:35;101573.06;;;20.33;61.47
28797;BME280;24974;54.444;18.560;2022-07-24T16:54:06;101571.72;;;20.03;62.38
28797;BME280;24974;54.444;18.560;2022-07-24T16:56:37;101575.91;;;20.09;61.86
28797;BME280;24974;54.444;18.560;2022-07-24T16:59:09;101576.78;;;19.97;62.55
28797;BME280;24974;54.444;18.560;2022-07-24T17:01:40;101573.56;;;20.11;62.18
28797;BME280;24974;54.444;18.560;2022-07-24T17:04:10;101577.22;;;19.99;62.62
28797;BME280;24974;54.444;18.560;2022-07-24T17:06:41;101576.63;;;19.94;62.90
28797;BME280;24974;54.444;18.560;2022-07-24T17:09:16;101584.56;;;19.79;63.25
28797;BME280;24974;54.444;18.560;2022-07-24T17:11:47;101571.91;;;19.70;63.33
28797;BME280;24974;54.444;18.560;2022-07-24T17:14:23;101573.41;;;19.79;63.12
28797;BME280;24974;54.444;18.560;2022-07-24T17:16:55;101573.97;;;19.85;62.79
28797;BME280;24974;54.444;18.560;2022-07-24T17:19:26;101576.63;;;19.94;62.45
28797;BME280;24974;54.444;18.560;2022-07-24T17:22:15;101568.72;;;19.96;62.45
28797;BME280;24974;54.444;18.560;2022-07-24T17:24:48;101578.63;;;19.93;62.08
28797;BME280;24974;54.444;18.560;2022-07-24T17:27:20;101571.31;;;19.76;62.55
28797;BME280;24974;54.444;18.560;2022-07-24T17:29:50;101577.84;;;19.68;62.88
28797;BME280;24974;54.444;18.560;2022-07-24T17:32:21;101580.84;;;19.63;62.91
28797;BME280;24974;54.444;18.560;2022-07-24T17:34:52;101581.44;;;19.69;63.18
28797;BME280;24974;54.444;18.560;2022-07-24T17:37:23;101582.47;;;19.76;62.88
28797;BME280;24974;54.444;18.560;2022-07-24T17:39:54;101570.50;;;19.64;63.56
28797;BME280;24974;54.444;18.560;2022-07-24T17:42:25;101567.72;;;19.64;63.41
28797;BME280;24974;54.444;18.560;2022-07-24T17:44:56;101566.41;;;19.49;63.99
28797;BME280;24974;54.444;18.560;2022-07-24T17:47:27;101565.97;;;19.47;64.54
28797;BME280;24974;54.444;18.560;2022-07-24T17:49:58;101569.22;;;19.37;64.68
28797;BME280;24974;54.444;18.560;2022-07-24T17:52:29;101570.47;;;19.39;64.28
28797;BME280;24974;54.444;18.560;2022-07-24T17:55:02;101565.84;;;19.43;64.03
28797;BME280;24974;54.444;18.560;2022-07-24T17:57:34;101560.50;;;19.26;64.71
28797;BME280;24974;54.444;18.560;2022-07-24T18:00:07;101555.94;;;18.97;65.77
28797;BME280;24974;54.444;18.560;2022-07-24T18:02:45;101546.56;;;19.26;64.86
28797;BME280;24974;54.444;18.560;2022-07-24T18:05:16;101556.31;;;19.20;65.51
28797;BME280;24974;54.444;18.560;2022-07-24T18:07:47;101553.28;;;19.13;65.35
28797;BME280;24974;54.444;18.560;2022-07-24T18:10:18;101547.47;;;19.06;65.98
28797;BME280;24974;54.444;18.560;2022-07-24T18:12:49;101552.72;;;19.19;65.43
28797;BME280;24974;54.444;18.560;2022-07-24T18:15:21;101556.03;;;19.00;66.76
28797;BME280;24974;54.444;18.560;2022-07-24T18:17:52;101555.00;;;18.93;67.35
28797;BME280;24974;54.444;18.560;2022-07-24T18:20:23;101563.63;;;18.67;68.13
28797;BME280;24974;54.444;18.560;2022-07-24T18:22:54;101553.81;;;18.82;67.60
28797;BME280;24974;54.444;18.560;2022-07-24T18:25:25;101555.94;;;18.64;68.36
28797;BME280;24974;54.444;18.560;2022-07-24T18:27:56;101553.97;;;18.64;68.68
28797;BME280;24974;54.444;18.560;2022-07-24T18:30:27;101563.91;;;18.53;69.21
28797;BME280;24974;54.444;18.560;2022-07-24T18:32:58;101562.94;;;18.49;69.60
28797;BME280;24974;54.444;18.560;2022-07-24T18:35:29;101563.75;;;18.50;69.31
28797;BME280;24974;54.444;18.560;2022-07-24T18:38:00;101563.06;;;18.53;69.02
28797;BME280;24974;54.444;18.560;2022-07-24T18:40:31;101559.06;;;18.29;69.47
28797;BME280;24974;54.444;18.560;2022-07-24T18:43:02;101561.97;;;18.33;69.38
28797;BME280;24974;54.444;18.560;2022-07-24T18:45:32;101561.69;;;18.26;69.83
28797;BME280;24974;54.444;18.560;2022-07-24T18:48:03;101561.88;;;18.21;70.36
28797;BME280;24974;54.444;18.560;2022-07-24T18:50:34;101564.81;;;18.03;71.05
28797;BME280;24974;54.444;18.560;2022-07-24T18:53:05;101556.69;;;17.98;70.88
28797;BME280;24974;54.444;18.560;2022-07-24T18:55:36;101571.31;;;17.86;71.38
28797;BME280;24974;54.444;18.560;2022-07-24T18:58:07;101574.78;;;17.83;71.08
28797;BME280;24974;54.444;18.560;2022-07-24T19:00:38;101569.94;;;17.72;71.66
28797;BME280;24974;54.444;18.560;2022-07-24T19:03:12;101569.09;;;17.71;71.62
28797;BME280;24974;54.444;18.560;2022-07-24T19:05:44;101572.69;;;17.72;71.75
28797;BME280;24974;54.444;18.560;2022-07-24T19:08:15;101572.72;;;17.63;71.75
28797;BME280;24974;54.444;18.560;2022-07-24T19:10:46;101573.59;;;17.55;72.81
28797;BME280;24974;54.444;18.560;2022-07-24T19:13:17;101577.34;;;17.59;72.77
28797;BME280;24974;54.444;18.560;2022-07-24T19:15:48;101575.47;;;17.42;73.47